Piedmont, Oklahoma
Current Conditions -  °F | °C
As of 9:53 PM on Wednesday 17 Dec 2014 (Local Time) from KPWA Reporting Station
Haze Haze  
Wind Chill: 30°   Ceiling: 600
Heat Index: 38°   Visibility: 3mi
Dew Point: 36°   Wind: 12mph
Humidity: 93%   Direction: 120°ESE
Pressure: 30.13"   Gusts: NA
Location:  35.64°N, 97.75°W
Report Text: KPWA 180353Z AUTO 12010KT 3SM BR OVC006 03/02 A3013 RMK AO2 RAB0259E42 CIG 004V009 SLP208 P0001 T00330022
Loading
Personal Weather Stations






























Interactive Weather Map New forecast layout! Learn more

10-Day Weather Forecast

Advertisements
Track Severe Weather on mobile